createdAt,value
2022-10-18T00:18:42.990Z,11.63
2022-10-18T00:48:46.450Z,11.33
2022-10-18T01:18:49.851Z,11.26
2022-10-18T01:48:53.072Z,11.28
2022-10-18T02:18:57.321Z,10.96
2022-10-18T02:49:00.649Z,10.68
2022-10-18T03:19:03.623Z,10.36
2022-10-18T03:49:06.736Z,9.97
2022-10-18T04:19:10.220Z,10.03
2022-10-18T04:49:13.547Z,10.15
2022-10-18T05:19:16.665Z,10.19
2022-10-18T05:49:19.517Z,10.48
2022-10-18T06:19:22.890Z,11.02
2022-10-18T06:49:25.544Z,11.62
2022-10-18T07:19:29.250Z,12.39
2022-10-18T07:49:32.118Z,13.45
2022-10-18T08:19:35.709Z,14.29
2022-10-18T08:49:38.527Z,14.93
2022-10-18T09:19:41.907Z,15.41
2022-10-18T09:49:45.523Z,15.33
2022-10-18T10:19:48.575Z,15.04
2022-10-18T10:49:52.119Z,14.95
2022-10-18T11:19:55.418Z,14.38
2022-10-18T11:49:58.858Z,13.89
2022-10-18T12:20:02.449Z,14.00
2022-10-18T12:50:05.154Z,13.93
2022-10-18T13:20:25.064Z,14.07
2022-10-18T13:50:28.642Z,14.07
2022-10-18T14:20:36.889Z,14.02
2022-10-18T14:50:46.954Z,13.93
2022-10-18T15:20:50.783Z,13.99
2022-10-18T15:50:53.632Z,13.69
2022-10-18T16:20:57.917Z,13.48
2022-10-18T16:51:00.840Z,13.27
2022-10-18T17:21:04.439Z,12.93
2022-10-18T17:51:07.454Z,12.54
2022-10-18T18:21:10.809Z,12.11
2022-10-18T18:51:14.128Z,11.82
2022-10-18T19:21:17.132Z,11.26
2022-10-18T19:51:22.957Z,10.78
2022-10-18T20:21:29.110Z,10.35
2022-10-18T20:51:31.877Z,10.22
2022-10-18T21:21:35.332Z,9.97
2022-10-18T21:51:38.518Z,9.82
2022-10-18T22:21:41.954Z,9.47
2022-10-18T22:51:44.768Z,9.35
2022-10-18T23:21:48.115Z,9.46
2022-10-18T23:51:51.679Z,9.77
